sensor_id;sensor_type;location;lat;lon;timestamp;temperature;humidity
54898;DHT22;40800;52.704;6.398;2023-07-29T00:01:32;18.40;99.90
54898;DHT22;40800;52.704;6.398;2023-07-29T00:03:57;18.50;99.90
54898;DHT22;40800;52.704;6.398;2023-07-29T00:06:23;18.40;99.90
54898;DHT22;40800;52.704;6.398;2023-07-29T00:08:49;18.10;99.90
54898;DHT22;40800;52.704;6.398;2023-07-29T00:11:15;18.00;99.90
54898;DHT22;40800;52.704;6.398;2023-07-29T00:13:40;18.30;99.90
54898;DHT22;40800;52.704;6.398;2023-07-29T00:16:06;18.40;99.90
54898;DHT22;40800;52.704;6.398;2023-07-29T00:18:32;18.00;99.90
54898;DHT22;40800;52.704;6.398;2023-07-29T00:20:58;17.90;99.90
54898;DHT22;40800;52.704;6.398;2023-07-29T00:23:23;17.90;99.90
54898;DHT22;40800;52.704;6.398;2023-07-29T00:25:49;18.30;99.90
54898;DHT22;40800;52.704;6.398;2023-07-29T00:28:15;17.90;99.90
54898;DHT22;40800;52.704;6.398;2023-07-29T00:30:40;18.30;99.90
54898;DHT22;40800;52.704;6.398;2023-07-29T00:33:06;17.80;99.90
54898;DHT22;40800;52.704;6.398;2023-07-29T00:35:31;17.80;99.90
54898;DHT22;40800;52.704;6.398;2023-07-29T00:37:57;17.80;99.90
54898;DHT22;40800;52.704;6.398;2023-07-29T00:40:23;17.80;99.90
54898;DHT22;40800;52.704;6.398;2023-07-29T00:42:49;17.90;99.90
54898;DHT22;40800;52.704;6.398;2023-07-29T00:45:16;18.30;99.90
54898;DHT22;40800;52.704;6.398;2023-07-29T00:47:42;17.80;99.90
54898;DHT22;40800;52.704;6.398;2023-07-29T00:50:12;17.80;99.90
54898;DHT22;40800;52.704;6.398;2023-07-29T00:52:38;17.70;99.90
54898;DHT22;40800;52.704;6.398;2023-07-29T00:55:04;18.10;99.90
54898;DHT22;40800;52.704;6.398;2023-07-29T00:57:30;18.00;99.90
54898;DHT22;40800;52.704;6.398;2023-07-29T00:59:56;17.70;99.90
54898;DHT22;40800;52.704;6.398;2023-07-29T01:02:22;17.80;99.90
54898;DHT22;40800;52.704;6.398;2023-07-29T01:04:58;18.10;99.90
54898;DHT22;40800;52.704;6.398;2023-07-29T01:10:30;18.00;99.90
54898;DHT22;40800;52.704;6.398;2023-07-29T01:18:31;18.00;99.90
54898;DHT22;40800;52.704;6.398;2023-07-29T01:21:03;17.50;99.90
54898;DHT22;40800;52.704;6.398;2023-07-29T01:23:38;17.50;99.90
54898;DHT22;40800;52.704;6.398;2023-07-29T01:26:04;17.40;99.90
54898;DHT22;40800;52.704;6.398;2023-07-29T01:28:30;17.50;99.90
54898;DHT22;40800;52.704;6.398;2023-07-29T01:31:07;17.40;99.90
54898;DHT22;40800;52.704;6.398;2023-07-29T01:33:40;18.00;99.90
54898;DHT22;40800;52.704;6.398;2023-07-29T01:36:15;17.70;99.90
54898;DHT22;40800;52.704;6.398;2023-07-29T01:38:44;17.30;99.90
54898;DHT22;40800;52.704;6.398;2023-07-29T01:41:10;17.60;99.90
54898;DHT22;40800;52.704;6.398;2023-07-29T01:43:37;17.30;99.90
54898;DHT22;40800;52.704;6.398;2023-07-29T01:46:09;17.90;99.90
54898;DHT22;40800;52.704;6.398;2023-07-29T01:48:36;17.30;99.90
54898;DHT22;40800;52.704;6.398;2023-07-29T01:51:01;17.80;99.90
54898;DHT22;40800;52.704;6.398;2023-07-29T01:53:27;17.70;99.90
54898;DHT22;40800;52.704;6.398;2023-07-29T01:55:53;17.80;99.90
54898;DHT22;40800;52.704;6.398;2023-07-29T01:58:18;17.60;99.90
54898;DHT22;40800;52.704;6.398;2023-07-29T02:00:44;17.50;99.90
54898;DHT22;40800;52.704;6.398;2023-07-29T02:03:09;17.30;99.90
54898;DHT22;40800;52.704;6.398;2023-07-29T02:05:35;17.50;99.90
54898;DHT22;40800;52.704;6.398;2023-07-29T02:08:01;17.90;99.90
54898;DHT22;40800;52.704;6.398;2023-07-29T02:10:26;17.30;99.90
54898;DHT22;40800;52.704;6.398;2023-07-29T02:12:52;17.70;99.90
54898;DHT22;40800;52.704;6.398;2023-07-29T02:15:17;17.30;99.90
54898;DHT22;40800;52.704;6.398;2023-07-29T02:17:44;17.50;99.90
54898;DHT22;40800;52.704;6.398;2023-07-29T02:20:10;17.50;99.90
54898;DHT22;40800;52.704;6.398;2023-07-29T02:22:36;17.50;99.90
54898;DHT22;40800;52.704;6.398;2023-07-29T02:25:02;17.80;99.90
54898;DHT22;40800;52.704;6.398;2023-07-29T02:27:28;17.70;99.90
54898;DHT22;40800;52.704;6.398;2023-07-29T02:29:54;17.60;99.90
54898;DHT22;40800;52.704;6.398;2023-07-29T02:32:20;17.80;99.90
54898;DHT22;40800;52.704;6.398;2023-07-29T02:34:46;17.80;99.90
54898;DHT22;40800;52.704;6.398;2023-07-29T02:37:11;17.20;99.90
54898;DHT22;40800;52.704;6.398;2023-07-29T02:39:37;17.20;99.90
54898;DHT22;40800;52.704;6.398;2023-07-29T02:42:03;17.70;99.90
54898;DHT22;40800;52.704;6.398;2023-07-29T02:44:29;17.70;99.90
54898;DHT22;40800;52.704;6.398;2023-07-29T02:46:54;17.50;99.90
54898;DHT22;40800;52.704;6.398;2023-07-29T02:49:22;17.10;99.90
54898;DHT22;40800;52.704;6.398;2023-07-29T02:51:48;17.10;99.90
54898;DHT22;40800;52.704;6.398;2023-07-29T02:54:13;17.60;99.90
54898;DHT22;40800;52.704;6.398;2023-07-29T02:56:39;17.60;99.90
54898;DHT22;40800;52.704;6.398;2023-07-29T02:59:05;17.00;99.90
54898;DHT22;40800;52.704;6.398;2023-07-29T03:01:30;17.40;99.90
54898;DHT22;40800;52.704;6.398;2023-07-29T03:03:56;17.60;99.90
54898;DHT22;40800;52.704;6.398;2023-07-29T03:06:22;17.00;99.90
54898;DHT22;40800;52.704;6.398;2023-07-29T03:08:48;17.00;99.90
54898;DHT22;40800;52.704;6.398;2023-07-29T03:11:15;17.00;99.90
54898;DHT22;40800;52.704;6.398;2023-07-29T03:13:40;17.40;99.90
54898;DHT22;40800;52.704;6.398;2023-07-29T03:16:07;17.00;99.90
54898;DHT22;40800;52.704;6.398;2023-07-29T03:18:33;17.00;99.90
54898;DHT22;40800;52.704;6.398;2023-07-29T03:20:59;17.00;99.90
54898;DHT22;40800;52.704;6.398;2023-07-29T03:23:24;17.00;99.90
54898;DHT22;40800;52.704;6.398;2023-07-29T03:25:50;17.30;99.90
54898;DHT22;40800;52.704;6.398;2023-07-29T03:28:23;17.40;99.90
54898;DHT22;40800;52.704;6.398;2023-07-29T03:30:48;17.30;99.90
54898;DHT22;40800;52.704;6.398;2023-07-29T03:33:14;17.30;99.90
54898;DHT22;40800;52.704;6.398;2023-07-29T03:35:39;16.70;99.90
54898;DHT22;40800;52.704;6.398;2023-07-29T03:38:05;17.20;99.90
54898;DHT22;40800;52.704;6.398;2023-07-29T03:40:31;16.80;99.90
54898;DHT22;40800;52.704;6.398;2023-07-29T03:42:56;17.20;99.90
54898;DHT22;40800;52.704;6.398;2023-07-29T03:45:22;17.20;99.90
54898;DHT22;40800;52.704;6.398;2023-07-29T03:47:47;17.20;99.90
54898;DHT22;40800;52.704;6.398;2023-07-29T03:50:13;17.10;99.90
54898;DHT22;40800;52.704;6.398;2023-07-29T03:52:38;16.70;99.90
54898;DHT22;40800;52.704;6.398;2023-07-29T03:55:04;17.20;99.90
54898;DHT22;40800;52.704;6.398;2023-07-29T03:57:30;17.20;99.90
54898;DHT22;40800;52.704;6.398;2023-07-29T03:59:56;16.60;99.90
54898;DHT22;40800;52.704;6.398;2023-07-29T04:02:21;17.20;99.90
54898;DHT22;40800;52.704;6.398;2023-07-29T04:04:47;17.10;99.90
54898;DHT22;40800;52.704;6.398;2023-07-29T04:07:13;16.60;99.90
54898;DHT22;40800;52.704;6.398;2023-07-29T04:09:39;17.00;99.90
54898;DHT22;40800;52.704;6.398;2023-07-29T04:12:05;17.20;99.90
54898;DHT22;40800;52.704;6.398;2023-07-29T04:14:31;16.60;99.90
54898;DHT22;40800;52.704;6.398;2023-07-29T04:16:57;16.60;99.90
54898;DHT22;40800;52.704;6.398;2023-07-29T04:19:22;17.20;99.90
54898;DHT22;40800;52.704;6.398;2023-07-29T04:21:48;16.90;99.90
54898;DHT22;40800;52.704;6.398;2023-07-29T04:24:16;16.90;99.90
54898;DHT22;40800;52.704;6.398;2023-07-29T04:26:41;16.80;99.90
54898;DHT22;40800;52.704;6.398;2023-07-29T04:29:07;17.30;99.90
54898;DHT22;40800;52.704;6.398;2023-07-29T04:31:32;16.80;99.90
54898;DHT22;40800;52.704;6.398;2023-07-29T04:33:58;17.10;99.90
54898;DHT22;40800;52.704;6.398;2023-07-29T04:36:24;17.30;99.90
54898;DHT22;40800;52.704;6.398;2023-07-29T04:38:49;17.10;99.90
54898;DHT22;40800;52.704;6.398;2023-07-29T04:41:15;17.30;99.90
54898;DHT22;40800;52.704;6.398;2023-07-29T04:43:40;17.40;99.90
54898;DHT22;40800;52.704;6.398;2023-07-29T04:46:07;17.40;99.90
54898;DHT22;40800;52.704;6.398;2023-07-29T04:48:34;16.90;99.90
54898;DHT22;40800;52.704;6.398;2023-07-29T04:50:59;16.90;99.90
54898;DHT22;40800;52.704;6.398;2023-07-29T04:53:25;16.90;99.90
54898;DHT22;40800;52.704;6.398;2023-07-29T04:55:50;17.50;99.90
54898;DHT22;40800;52.704;6.398;2023-07-29T04:58:16;17.50;99.90
54898;DHT22;40800;52.704;6.398;2023-07-29T05:00:42;17.00;99.90
54898;DHT22;40800;52.704;6.398;2023-07-29T05:03:07;17.10;99.90
54898;DHT22;40800;52.704;6.398;2023-07-29T05:05:33;17.60;99.90
54898;DHT22;40800;52.704;6.398;2023-07-29T05:07:58;17.40;99.90
54898;DHT22;40800;52.704;6.398;2023-07-29T05:10:24;17.50;99.90
54898;DHT22;40800;52.704;6.398;2023-07-29T05:12:50;17.20;99.90
54898;DHT22;40800;52.704;6.398;2023-07-29T05:15:15;17.50;99.90
54898;DHT22;40800;52.704;6.398;2023-07-29T05:17:41;17.30;99.90
54898;DHT22;40800;52.704;6.398;2023-07-29T05:20:07;17.90;99.90
54898;DHT22;40800;52.704;6.398;2023-07-29T05:22:33;17.90;99.90
54898;DHT22;40800;52.704;6.398;2023-07-29T05:24:58;17.50;99.90
54898;DHT22;40800;52.704;6.398;2023-07-29T05:27:24;17.30;99.90
54898;DHT22;40800;52.704;6.398;2023-07-29T05:29:50;17.60;99.90
54898;DHT22;40800;52.704;6.398;2023-07-29T05:32:15;17.50;99.90
54898;DHT22;40800;52.704;6.398;2023-07-29T05:34:41;18.00;99.90
54898;DHT22;40800;52.704;6.398;2023-07-29T05:37:06;18.00;99.90
54898;DHT22;40800;52.704;6.398;2023-07-29T05:39:32;18.00;99.90
54898;DHT22;40800;52.704;6.398;2023-07-29T05:41:58;18.10;99.90
54898;DHT22;40800;52.704;6.398;2023-07-29T05:44:24;18.00;99.90
54898;DHT22;40800;52.704;6.398;2023-07-29T05:46:49;18.10;99.90
54898;DHT22;40800;52.704;6.398;2023-07-29T05:49:15;17.40;99.90
54898;DHT22;40800;52.704;6.398;2023-07-29T05:51:41;17.70;99.90
54898;DHT22;40800;52.704;6.398;2023-07-29T05:54:06;18.20;99.90
54898;DHT22;40800;52.704;6.398;2023-07-29T05:56:32;17.50;99.90
54898;DHT22;40800;52.704;6.398;2023-07-29T05:58:57;18.30;99.90
54898;DHT22;40800;52.704;6.398;2023-07-29T06:01:23;18.20;99.90
54898;DHT22;40800;52.704;6.398;2023-07-29T06:03:49;17.90;99.90
54898;DHT22;40800;52.704;6.398;2023-07-29T06:06:15;17.90;99.90
54898;DHT22;40800;52.704;6.398;2023-07-29T06:08:41;17.60;99.90
54898;DHT22;40800;52.704;6.398;2023-07-29T06:11:06;17.90;99.90
54898;DHT22;40800;52.704;6.398;2023-07-29T06:13:32;17.80;99.90
54898;DHT22;40800;52.704;6.398;2023-07-29T06:15:58;18.30;99.90
54898;DHT22;40800;52.704;6.398;2023-07-29T06:18:24;17.80;99.90
54898;DHT22;40800;52.704;6.398;2023-07-29T06:20:50;18.60;99.90
54898;DHT22;40800;52.704;6.398;2023-07-29T06:23:16;18.50;99.90
54898;DHT22;40800;52.704;6.398;2023-07-29T06:25:42;18.00;99.90
54898;DHT22;40800;52.704;6.398;2023-07-29T06:28:09;18.10;99.90
54898;DHT22;40800;52.704;6.398;2023-07-29T06:30:34;18.30;99.90
54898;DHT22;40800;52.704;6.398;2023-07-29T06:33:00;18.50;99.90
54898;DHT22;40800;52.704;6.398;2023-07-29T06:35:26;18.80;99.90
54898;DHT22;40800;52.704;6.398;2023-07-29T06:37:51;18.70;99.90
54898;DHT22;40800;52.704;6.398;2023-07-29T06:40:17;18.70;99.90
54898;DHT22;40800;52.704;6.398;2023-07-29T06:42:42;18.30;99.90
54898;DHT22;40800;52.704;6.398;2023-07-29T06:45:08;18.90;99.90
54898;DHT22;40800;52.704;6.398;2023-07-29T06:47:35;18.40;99.90
54898;DHT22;40800;52.704;6.398;2023-07-29T06:50:00;18.30;99.90
54898;DHT22;40800;52.704;6.398;2023-07-29T06:52:26;18.80;99.90
54898;DHT22;40800;52.704;6.398;2023-07-29T06:54:52;19.00;99.90
54898;DHT22;40800;52.704;6.398;2023-07-29T06:57:17;18.90;99.90
54898;DHT22;40800;52.704;6.398;2023-07-29T06:59:43;18.60;99.90
54898;DHT22;40800;52.704;6.398;2023-07-29T07:02:08;18.50;99.90
54898;DHT22;40800;52.704;6.398;2023-07-29T07:04:34;18.60;99.90
54898;DHT22;40800;52.704;6.398;2023-07-29T07:07:00;19.20;99.90
54898;DHT22;40800;52.704;6.398;2023-07-29T07:09:26;18.70;99.90
54898;DHT22;40800;52.704;6.398;2023-07-29T07:11:51;18.70;99.90
54898;DHT22;40800;52.704;6.398;2023-07-29T07:14:17;18.80;99.90
54898;DHT22;40800;52.704;6.398;2023-07-29T07:16:44;18.90;99.90
54898;DHT22;40800;52.704;6.398;2023-07-29T07:19:10;19.50;99.90
54898;DHT22;40800;52.704;6.398;2023-07-29T07:21:36;19.60;99.90
54898;DHT22;40800;52.704;6.398;2023-07-29T07:24:01;19.60;99.90
54898;DHT22;40800;52.704;6.398;2023-07-29T07:26:27;19.40;99.90
54898;DHT22;40800;52.704;6.398;2023-07-29T07:28:52;19.70;99.90
54898;DHT22;40800;52.704;6.398;2023-07-29T07:31:18;19.80;99.90
54898;DHT22;40800;52.704;6.398;2023-07-29T07:33:44;19.50;99.90
54898;DHT22;40800;52.704;6.398;2023-07-29T07:36:10;19.80;99.90
54898;DHT22;40800;52.704;6.398;2023-07-29T07:38:35;19.60;99.90
54898;DHT22;40800;52.704;6.398;2023-07-29T07:41:02;19.40;99.90
54898;DHT22;40800;52.704;6.398;2023-07-29T07:43:27;19.60;99.90
54898;DHT22;40800;52.704;6.398;2023-07-29T07:46:00;19.70;99.90
54898;DHT22;40800;52.704;6.398;2023-07-29T07:48:29;19.60;99.90
54898;DHT22;40800;52.704;6.398;2023-07-29T07:50:55;19.80;99.90
54898;DHT22;40800;52.704;6.398;2023-07-29T07:53:20;19.80;99.90
54898;DHT22;40800;52.704;6.398;2023-07-29T07:55:46;19.90;99.90
54898;DHT22;40800;52.704;6.398;2023-07-29T07:58:12;20.00;99.90
54898;DHT22;40800;52.704;6.398;2023-07-29T08:00:38;19.90;99.90
54898;DHT22;40800;52.704;6.398;2023-07-29T08:03:04;20.00;99.90
54898;DHT22;40800;52.704;6.398;2023-07-29T08:05:29;20.30;99.90
54898;DHT22;40800;52.704;6.398;2023-07-29T08:07:56;20.20;99.90
54898;DHT22;40800;52.704;6.398;2023-07-29T08:10:22;20.40;99.90
54898;DHT22;40800;52.704;6.398;2023-07-29T08:12:48;20.30;99.90
54898;DHT22;40800;52.704;6.398;2023-07-29T08:15:13;20.40;99.90
54898;DHT22;40800;52.704;6.398;2023-07-29T08:17:39;20.40;99.90
54898;DHT22;40800;52.704;6.398;2023-07-29T08:20:05;20.60;99.90
54898;DHT22;40800;52.704;6.398;2023-07-29T08:22:31;20.70;99.90
54898;DHT22;40800;52.704;6.398;2023-07-29T08:24:57;20.80;99.90
54898;DHT22;40800;52.704;6.398;2023-07-29T08:27:23;20.90;99.90
54898;DHT22;40800;52.704;6.398;2023-07-29T08:29:48;20.90;99.90
54898;DHT22;40800;52.704;6.398;2023-07-29T08:32:14;20.90;99.90
54898;DHT22;40800;52.704;6.398;2023-07-29T08:34:39;20.60;99.90
54898;DHT22;40800;52.704;6.398;2023-07-29T08:37:05;20.60;99.90
54898;DHT22;40800;52.704;6.398;2023-07-29T08:39:31;20.80;99.90
54898;DHT22;40800;52.704;6.398;2023-07-29T08:42:08;20.80;99.90
54898;DHT22;40800;52.704;6.398;2023-07-29T08:44:40;21.10;99.90
54898;DHT22;40800;52.704;6.398;2023-07-29T08:47:06;21.10;99.90
54898;DHT22;40800;52.704;6.398;2023-07-29T08:49:33;20.90;99.90
54898;DHT22;40800;52.704;6.398;2023-07-29T08:51:59;20.90;99.90
54898;DHT22;40800;52.704;6.398;2023-07-29T08:54:25;21.00;99.90
54898;DHT22;40800;52.704;6.398;2023-07-29T08:56:51;21.00;99.90
54898;DHT22;40800;52.704;6.398;2023-07-29T08:59:17;21.10;99.90
54898;DHT22;40800;52.704;6.398;2023-07-29T09:01:44;21.40;99.90
54898;DHT22;40800;52.704;6.398;2023-07-29T09:04:10;21.40;99.90
54898;DHT22;40800;52.704;6.398;2023-07-29T09:06:36;21.70;99.90
54898;DHT22;40800;52.704;6.398;2023-07-29T09:09:03;21.90;99.90
54898;DHT22;40800;52.704;6.398;2023-07-29T09:11:30;21.90;99.90
54898;DHT22;40800;52.704;6.398;2023-07-29T09:13:55;21.90;99.90
54898;DHT22;40800;52.704;6.398;2023-07-29T09:16:21;21.80;99.90
54898;DHT22;40800;52.704;6.398;2023-07-29T09:18:51;21.70;99.90
54898;DHT22;40800;52.704;6.398;2023-07-29T09:21:24;21.80;99.90
54898;DHT22;40800;52.704;6.398;2023-07-29T09:23:54;21.80;99.90
54898;DHT22;40800;52.704;6.398;2023-07-29T09:28:52;22.10;99.90
54898;DHT22;40800;52.704;6.398;2023-07-29T09:31:20;22.30;99.90
54898;DHT22;40800;52.704;6.398;2023-07-29T09:33:46;22.30;99.90
54898;DHT22;40800;52.704;6.398;2023-07-29T09:36:12;22.10;99.90
54898;DHT22;40800;52.704;6.398;2023-07-29T09:38:37;22.10;99.90
54898;DHT22;40800;52.704;6.398;2023-07-29T09:41:03;22.00;99.90
54898;DHT22;40800;52.704;6.398;2023-07-29T09:43:30;21.90;99.90
54898;DHT22;40800;52.704;6.398;2023-07-29T09:46:03;21.90;99.90
54898;DHT22;40800;52.704;6.398;2023-07-29T09:48:36;22.00;99.90
54898;DHT22;40800;52.704;6.398;2023-07-29T09:51:11;22.10;99.90
54898;DHT22;40800;52.704;6.398;2023-07-29T09:53:46;22.00;99.90
54898;DHT22;40800;52.704;6.398;2023-07-29T09:56:12;22.00;99.90
54898;DHT22;40800;52.704;6.398;2023-07-29T09:58:38;21.90;99.90
54898;DHT22;40800;52.704;6.398;2023-07-29T10:01:08;21.90;99.90
54898;DHT22;40800;52.704;6.398;2023-07-29T10:03:35;22.00;99.90
54898;DHT22;40800;52.704;6.398;2023-07-29T10:06:02;22.30;99.90
54898;DHT22;40800;52.704;6.398;2023-07-29T10:08:30;22.50;99.90
54898;DHT22;40800;52.704;6.398;2023-07-29T10:10:59;22.70;99.90
54898;DHT22;40800;52.704;6.398;2023-07-29T10:13:26;22.70;99.90
54898;DHT22;40800;52.704;6.398;2023-07-29T10:15:54;22.80;99.90
54898;DHT22;40800;52.704;6.398;2023-07-29T10:18:22;23.00;99.90
54898;DHT22;40800;52.704;6.398;2023-07-29T10:20:48;23.20;99.90
54898;DHT22;40800;52.704;6.398;2023-07-29T10:23:15;23.10;99.90
54898;DHT22;40800;52.704;6.398;2023-07-29T10:25:46;22.90;99.90
54898;DHT22;40800;52.704;6.398;2023-07-29T10:28:12;22.70;99.90
54898;DHT22;40800;52.704;6.398;2023-07-29T10:30:41;22.60;99.90
54898;DHT22;40800;52.704;6.398;2023-07-29T10:33:07;22.70;99.90
54898;DHT22;40800;52.704;6.398;2023-07-29T10:35:33;23.00;99.90
54898;DHT22;40800;52.704;6.398;2023-07-29T10:38:01;23.20;99.90
54898;DHT22;40800;52.704;6.398;2023-07-29T10:41:01;23.20;99.90
54898;DHT22;40800;52.704;6.398;2023-07-29T10:43:37;23.10;99.90
54898;DHT22;40800;52.704;6.398;2023-07-29T10:46:16;22.80;99.90
54898;DHT22;40800;52.704;6.398;2023-07-29T10:48:55;22.70;99.90
54898;DHT22;40800;52.704;6.398;2023-07-29T10:51:30;22.50;99.90
54898;DHT22;40800;52.704;6.398;2023-07-29T10:54:04;22.50;99.90
54898;DHT22;40800;52.704;6.398;2023-07-29T10:56:36;22.50;99.90
54898;DHT22;40800;52.704;6.398;2023-07-29T11:01:39;22.70;99.90
54898;DHT22;40800;52.704;6.398;2023-07-29T11:15:44;23.20;99.90
54898;DHT22;40800;52.704;6.398;2023-07-29T11:18:03;23.50;99.90
54898;DHT22;40800;52.704;6.398;2023-07-29T11:20:30;23.60;99.90
54898;DHT22;40800;52.704;6.398;2023-07-29T11:22:58;23.50;99.90
54898;DHT22;40800;52.704;6.398;2023-07-29T11:25:25;23.40;99.90
54898;DHT22;40800;52.704;6.398;2023-07-29T11:27:52;23.20;99.90
54898;DHT22;40800;52.704;6.398;2023-07-29T11:30:19;22.90;99.90
54898;DHT22;40800;52.704;6.398;2023-07-29T11:32:45;22.60;99.90
54898;DHT22;40800;52.704;6.398;2023-07-29T11:35:12;22.50;99.90
54898;DHT22;40800;52.704;6.398;2023-07-29T11:37:40;22.50;99.90
54898;DHT22;40800;52.704;6.398;2023-07-29T11:40:06;22.90;99.90
54898;DHT22;40800;52.704;6.398;2023-07-29T11:42:34;23.20;99.90
54898;DHT22;40800;52.704;6.398;2023-07-29T11:45:00;23.40;99.90
54898;DHT22;40800;52.704;6.398;2023-07-29T11:47:26;23.70;99.90
54898;DHT22;40800;52.704;6.398;2023-07-29T11:49:52;23.90;99.90
54898;DHT22;40800;52.704;6.398;2023-07-29T11:52:18;23.80;99.90
54898;DHT22;40800;52.704;6.398;2023-07-29T11:54:47;23.60;99.90
54898;DHT22;40800;52.704;6.398;2023-07-29T11:57:13;23.50;99.90
54898;DHT22;40800;52.704;6.398;2023-07-29T11:59:40;23.70;99.90
54898;DHT22;40800;52.704;6.398;2023-07-29T12:02:17;24.10;99.90
54898;DHT22;40800;52.704;6.398;2023-07-29T12:04:44;24.30;99.90
54898;DHT22;40800;52.704;6.398;2023-07-29T12:07:13;24.30;99.90
54898;DHT22;40800;52.704;6.398;2023-07-29T12:09:39;24.10;99.90
54898;DHT22;40800;52.704;6.398;2023-07-29T12:12:06;24.00;99.90
54898;DHT22;40800;52.704;6.398;2023-07-29T12:14:32;23.80;99.90
54898;DHT22;40800;52.704;6.398;2023-07-29T12:17:02;23.70;99.90
54898;DHT22;40800;52.704;6.398;2023-07-29T12:19:38;23.70;99.90
54898;DHT22;40800;52.704;6.398;2023-07-29T12:22:06;23.80;99.90
54898;DHT22;40800;52.704;6.398;2023-07-29T12:24:34;23.50;99.90
54898;DHT22;40800;52.704;6.398;2023-07-29T12:27:01;23.40;99.90
54898;DHT22;40800;52.704;6.398;2023-07-29T12:29:27;23.30;99.90
54898;DHT22;40800;52.704;6.398;2023-07-29T12:32:03;23.40;99.90
54898;DHT22;40800;52.704;6.398;2023-07-29T12:34:30;23.60;99.90
54898;DHT22;40800;52.704;6.398;2023-07-29T12:36:57;23.70;99.90
54898;DHT22;40800;52.704;6.398;2023-07-29T12:39:27;23.50;99.90
54898;DHT22;40800;52.704;6.398;2023-07-29T12:41:56;23.30;99.90
54898;DHT22;40800;52.704;6.398;2023-07-29T12:44:29;23.00;99.90
54898;DHT22;40800;52.704;6.398;2023-07-29T12:46:55;22.70;99.90
54898;DHT22;40800;52.704;6.398;2023-07-29T12:49:20;22.40;99.90
54898;DHT22;40800;52.704;6.398;2023-07-29T12:51:46;22.20;99.90
54898;DHT22;40800;52.704;6.398;2023-07-29T12:54:12;22.20;99.90
54898;DHT22;40800;52.704;6.398;2023-07-29T12:56:37;22.30;99.90
54898;DHT22;40800;52.704;6.398;2023-07-29T12:59:04;22.70;99.90
54898;DHT22;40800;52.704;6.398;2023-07-29T13:01:30;22.80;99.90
54898;DHT22;40800;52.704;6.398;2023-07-29T13:03:55;23.20;99.90
54898;DHT22;40800;52.704;6.398;2023-07-29T13:06:22;23.40;99.90
54898;DHT22;40800;52.704;6.398;2023-07-29T13:08:48;23.60;99.90
54898;DHT22;40800;52.704;6.398;2023-07-29T13:11:17;23.80;99.90
54898;DHT22;40800;52.704;6.398;2023-07-29T13:13:43;24.20;99.90
54898;DHT22;40800;52.704;6.398;2023-07-29T13:16:10;24.40;99.90
54898;DHT22;40800;52.704;6.398;2023-07-29T13:18:36;24.50;99.90
54898;DHT22;40800;52.704;6.398;2023-07-29T13:21:02;24.20;99.90
54898;DHT22;40800;52.704;6.398;2023-07-29T13:23:28;23.80;99.90
54898;DHT22;40800;52.704;6.398;2023-07-29T13:25:55;23.40;99.90
54898;DHT22;40800;52.704;6.398;2023-07-29T13:28:21;23.10;99.90
54898;DHT22;40800;52.704;6.398;2023-07-29T13:30:46;22.70;99.90
54898;DHT22;40800;52.704;6.398;2023-07-29T13:33:12;21.70;99.90
54898;DHT22;40800;52.704;6.398;2023-07-29T13:35:38;21.10;99.90
54898;DHT22;40800;52.704;6.398;2023-07-29T13:38:03;20.50;99.90
54898;DHT22;40800;52.704;6.398;2023-07-29T13:40:29;20.20;99.90
54898;DHT22;40800;52.704;6.398;2023-07-29T13:42:55;19.80;99.90
54898;DHT22;40800;52.704;6.398;2023-07-29T13:45:21;19.60;99.90
54898;DHT22;40800;52.704;6.398;2023-07-29T13:47:48;19.40;99.90
54898;DHT22;40800;52.704;6.398;2023-07-29T13:50:14;19.30;99.90
54898;DHT22;40800;52.704;6.398;2023-07-29T13:52:39;19.50;99.90
54898;DHT22;40800;52.704;6.398;2023-07-29T13:55:05;19.60;99.90
54898;DHT22;40800;52.704;6.398;2023-07-29T13:57:32;19.60;99.90
54898;DHT22;40800;52.704;6.398;2023-07-29T13:59:58;20.20;99.90
54898;DHT22;40800;52.704;6.398;2023-07-29T14:02:23;20.60;99.90
54898;DHT22;40800;52.704;6.398;2023-07-29T14:04:49;21.10;99.90
54898;DHT22;40800;52.704;6.398;2023-07-29T14:07:15;21.50;99.90
54898;DHT22;40800;52.704;6.398;2023-07-29T14:09:40;21.80;99.90
54898;DHT22;40800;52.704;6.398;2023-07-29T14:12:08;21.70;99.90
54898;DHT22;40800;52.704;6.398;2023-07-29T14:14:38;21.40;99.90
54898;DHT22;40800;52.704;6.398;2023-07-29T14:17:03;21.20;99.90
54898;DHT22;40800;52.704;6.398;2023-07-29T14:19:29;21.10;99.90
54898;DHT22;40800;52.704;6.398;2023-07-29T14:21:55;20.90;99.90
54898;DHT22;40800;52.704;6.398;2023-07-29T14:24:20;20.90;99.90
54898;DHT22;40800;52.704;6.398;2023-07-29T14:26:47;20.60;99.90
54898;DHT22;40800;52.704;6.398;2023-07-29T14:29:12;20.80;99.90
54898;DHT22;40800;52.704;6.398;2023-07-29T14:31:38;20.50;99.90
54898;DHT22;40800;52.704;6.398;2023-07-29T14:34:04;20.50;99.90
54898;DHT22;40800;52.704;6.398;2023-07-29T14:36:29;20.10;99.90
54898;DHT22;40800;52.704;6.398;2023-07-29T14:38:55;19.90;99.90
54898;DHT22;40800;52.704;6.398;2023-07-29T14:41:20;20.00;99.90
54898;DHT22;40800;52.704;6.398;2023-07-29T14:43:46;19.70;99.90
54898;DHT22;40800;52.704;6.398;2023-07-29T14:46:12;19.60;99.90
54898;DHT22;40800;52.704;6.398;2023-07-29T14:48:37;20.10;99.90
54898;DHT22;40800;52.704;6.398;2023-07-29T14:51:03;21.00;99.90
54898;DHT22;40800;52.704;6.398;2023-07-29T14:53:28;21.00;99.90
54898;DHT22;40800;52.704;6.398;2023-07-29T14:55:54;21.00;99.90
54898;DHT22;40800;52.704;6.398;2023-07-29T14:58:20;21.60;99.90
54898;DHT22;40800;52.704;6.398;2023-07-29T15:00:45;22.30;99.90
54898;DHT22;40800;52.704;6.398;2023-07-29T15:03:11;22.40;99.90
54898;DHT22;40800;52.704;6.398;2023-07-29T15:05:36;22.70;99.90
54898;DHT22;40800;52.704;6.398;2023-07-29T15:08:02;23.10;99.90
54898;DHT22;40800;52.704;6.398;2023-07-29T15:10:28;23.50;99.90
54898;DHT22;40800;52.704;6.398;2023-07-29T15:12:53;23.60;99.90
54898;DHT22;40800;52.704;6.398;2023-07-29T15:15:19;23.80;99.90
54898;DHT22;40800;52.704;6.398;2023-07-29T15:17:44;23.90;99.90
54898;DHT22;40800;52.704;6.398;2023-07-29T15:20:11;23.90;99.90
54898;DHT22;40800;52.704;6.398;2023-07-29T15:22:37;24.10;99.90
54898;DHT22;40800;52.704;6.398;2023-07-29T15:25:03;24.20;99.90
54898;DHT22;40800;52.704;6.398;2023-07-29T15:27:30;24.50;99.90
54898;DHT22;40800;52.704;6.398;2023-07-29T15:29:56;24.50;99.90
54898;DHT22;40800;52.704;6.398;2023-07-29T15:32:22;24.50;99.90
54898;DHT22;40800;52.704;6.398;2023-07-29T15:34:48;24.50;99.90
54898;DHT22;40800;52.704;6.398;2023-07-29T15:37:15;24.70;99.90
54898;DHT22;40800;52.704;6.398;2023-07-29T15:39:41;24.70;99.90
54898;DHT22;40800;52.704;6.398;2023-07-29T15:42:07;24.70;99.90
54898;DHT22;40800;52.704;6.398;2023-07-29T15:44:32;24.70;99.90
54898;DHT22;40800;52.704;6.398;2023-07-29T15:46:58;24.80;99.90
54898;DHT22;40800;52.704;6.398;2023-07-29T15:49:24;24.90;99.90
54898;DHT22;40800;52.704;6.398;2023-07-29T15:51:50;25.10;99.90